Time;durP1;ratioP1;P1;durP2;ratioP2;P2;SDS_P1;SDS_P2;PMS_P1;PMS_P2;Temp;Humidity;BMP_temperature;BMP_pressure;BME280_temperature;BME280_humidity;BME280_pressure;Samples;Min_cycle;Max_cycle;Signal;HPM_P1;HPM_P2
2022/07/05 00:01:27;;;;;;;;;;;27.50;46.00;;;;;;1582353;75;1107;-67
2022/07/05 00:03:29;;;;;;;;;;;27.40;46.00;;;;;;1570031;74;691;-71
2022/07/05 00:05:31;;;;;;;;;;;27.50;46.00;;;;;;1632079;71;747;-68
2022/07/05 00:07:32;;;;;;;;;;;27.50;46.10;;;;;;1632577;71;552;-69
2022/07/05 00:09:34;;;;;;;;;;;27.50;46.00;;;;;;1631896;71;1939;-68
2022/07/05 00:11:36;;;;;;;;;;;27.50;46.00;;;;;;1633495;71;1146;-68
2022/07/05 00:13:38;;;;;;;;;;;27.50;46.00;;;;;;1632974;71;614;-66
2022/07/05 00:15:40;;;;;;;;;;;27.50;46.00;;;;;;1646540;71;627;-66
2022/07/05 00:17:42;;;;;;;;;;;27.50;46.00;;;;;;1619577;71;737;-65
2022/07/05 00:19:44;;;;;;;;;;;27.50;46.00;;;;;;1637226;71;654;-71
2022/07/05 00:21:45;;;;;;;;;;;27.40;46.00;;;;;;1637077;71;1102;-68
2022/07/05 00:23:47;;;;;;;;;;;27.50;46.00;;;;;;1622759;71;1206;-67
2022/07/05 00:25:49;;;;;;;;;;;27.50;46.10;;;;;;1650280;71;663;-68
2022/07/05 00:27:53;;;;;;;;;;;27.50;46.10;;;;;;1638424;71;692;-68
2022/07/05 00:29:55;;;;;;;;;;;27.50;46.10;;;;;;1633018;71;1917;-67
2022/07/05 00:31:57;;;;;;;;;;;27.50;46.10;;;;;;1639554;71;1114;-69
2022/07/05 00:33:58;;;;;;;;;;;27.40;46.10;;;;;;1638321;71;628;-69
2022/07/05 00:36:00;;;;;;;;;;;27.50;46.20;;;;;;1609679;71;734;-69
2022/07/05 00:38:02;;;;;;;;;;;27.40;46.20;;;;;;1635539;71;1581;-67
2022/07/05 00:40:05;;;;;;;;;;;27.40;46.20;;;;;;1637893;71;687;-68
2022/07/05 00:42:06;;;;;;;;;;;27.50;46.10;;;;;;1589109;73;1143;-67
2022/07/05 00:44:09;;;;;;;;;;;27.40;46.10;;;;;;1577048;74;717;-67
2022/07/05 00:46:11;;;;;;;;;;;27.40;46.20;;;;;;1578606;74;688;-68
2022/07/05 00:48:13;;;;;;;;;;;27.40;46.20;;;;;;1583690;74;649;-64
2022/07/05 00:50:15;;;;;;;;;;;27.40;46.20;;;;;;1577609;74;1956;-67
2022/07/05 00:52:16;;;;;;;;;;;27.40;46.30;;;;;;1590940;74;1425;-69
2022/07/05 00:54:18;;;;;;;;;;;27.40;46.20;;;;;;1577891;74;714;-69
2022/07/05 00:56:20;;;;;;;;;;;27.50;46.20;;;;;;1587813;74;679;-69
2022/07/05 00:58:22;;;;;;;;;;;27.40;46.20;;;;;;1570370;74;686;-71
2022/07/05 01:00:24;;;;;;;;;;;27.50;46.20;;;;;;1583705;74;654;-71
2022/07/05 01:02:26;;;;;;;;;;;27.50;46.10;;;;;;1588195;74;636;-70
2022/07/05 01:04:28;;;;;;;;;;;27.40;46.10;;;;;;1584771;74;653;-68
2022/07/05 01:06:30;;;;;;;;;;;27.40;46.10;;;;;;1583491;74;1447;-69
2022/07/05 01:08:31;;;;;;;;;;;27.50;46.20;;;;;;1585402;74;699;-68
2022/07/05 01:10:33;;;;;;;;;;;27.40;46.10;;;;;;1575111;74;1924;-69
2022/07/05 01:12:37;;;;;;;;;;;27.50;46.10;;;;;;1571675;74;694;-71
2022/07/05 01:14:39;;;;;;;;;;;27.40;46.20;;;;;;1597676;74;801;-67
2022/07/05 01:16:40;;;;;;;;;;;27.40;46.20;;;;;;1573040;74;708;-69
2022/07/05 01:18:43;;;;;;;;;;;27.50;46.20;;;;;;1581271;74;658;-67
2022/07/05 01:20:45;;;;;;;;;;;27.50;46.30;;;;;;1578083;74;1479;-69
2022/07/05 01:22:53;;;;;;;;;;;27.40;46.30;;;;;;1572603;74;583;-67
2022/07/05 01:24:55;;;;;;;;;;;27.40;46.30;;;;;;1579544;74;879;-67
2022/07/05 01:26:57;;;;;;;;;;;27.40;46.30;;;;;;1579032;74;721;-68
2022/07/05 01:28:59;;;;;;;;;;;27.40;46.30;;;;;;1591713;74;684;-68
2022/07/05 01:31:20;;;;;;;;;;;27.40;46.30;;;;;;1573390;74;1959;-69
2022/07/05 01:33:23;;;;;;;;;;;27.40;46.40;;;;;;1503997;77;696;-56
2022/07/05 01:35:25;;;;;;;;;;;27.40;46.40;;;;;;1498128;77;1561;-56
2022/07/05 01:37:27;;;;;;;;;;;27.40;46.40;;;;;;1496448;77;1160;-54
2022/07/05 01:39:29;;;;;;;;;;;27.40;46.40;;;;;;1469982;79;1004;-56
2022/07/05 01:41:31;;;;;;;;;;;27.40;46.40;;;;;;1490858;78;680;-55
2022/07/05 01:43:33;;;;;;;;;;;27.40;46.40;;;;;;1506315;77;666;-56
2022/07/05 01:45:45;;;;;;;;;;;27.40;46.50;;;;;;1503660;77;697;-56
2022/07/05 01:47:48;;;;;;;;;;;27.40;46.40;;;;;;1499161;77;1658;-55
2022/07/05 01:49:51;;;;;;;;;;;27.40;46.40;;;;;;1505587;77;1937;-55
2022/07/05 01:51:55;;;;;;;;;;;27.40;46.40;;;;;;1502968;77;730;-56
2022/07/05 01:53:57;;;;;;;;;;;27.40;46.50;;;;;;1501429;77;1756;-54
2022/07/05 01:56:00;;;;;;;;;;;27.40;46.50;;;;;;1496365;77;771;-55
2022/07/05 01:58:02;;;;;;;;;;;27.40;46.40;;;;;;1504836;77;1595;-56
2022/07/05 02:00:04;;;;;;;;;;;27.40;46.40;;;;;;1505060;77;679;-55
2022/07/05 02:02:07;;;;;;;;;;;27.40;46.40;;;;;;1498109;77;1537;-56
2022/07/05 02:04:09;;;;;;;;;;;27.40;46.40;;;;;;1502205;77;776;-56
2022/07/05 02:06:11;;;;;;;;;;;27.40;46.50;;;;;;1498840;77;1140;-54
2022/07/05 02:08:13;;;;;;;;;;;27.40;46.50;;;;;;1497791;77;766;-57
2022/07/05 02:10:15;;;;;;;;;;;27.40;46.50;;;;;;1503555;77;1934;-54
2022/07/05 02:12:17;;;;;;;;;;;27.30;46.50;;;;;;1506327;77;662;-55
2022/07/05 02:14:19;;;;;;;;;;;27.30;46.50;;;;;;1505272;77;777;-56
2022/07/05 02:16:24;;;;;;;;;;;27.30;46.50;;;;;;1501375;77;1339;-56
2022/07/05 02:18:26;;;;;;;;;;;27.40;46.50;;;;;;1505310;77;630;-54
2022/07/05 02:20:28;;;;;;;;;;;27.30;46.50;;;;;;1493666;77;765;-55
2022/07/05 02:22:32;;;;;;;;;;;27.30;46.50;;;;;;1492249;77;839;-54
2022/07/05 02:24:34;;;;;;;;;;;27.40;46.50;;;;;;1489291;77;683;-57
2022/07/05 02:26:36;;;;;;;;;;;27.40;46.50;;;;;;1489922;77;1145;-55
2022/07/05 02:28:38;;;;;;;;;;;27.40;46.40;;;;;;1490044;77;676;-54
2022/07/05 02:30:39;;;;;;;;;;;27.40;46.40;;;;;;1497200;77;1949;-56
2022/07/05 02:32:42;;;;;;;;;;;27.40;46.40;;;;;;1490673;77;672;-53
2022/07/05 02:34:43;;;;;;;;;;;27.40;46.40;;;;;;1489185;77;726;-54
2022/07/05 02:36:45;;;;;;;;;;;27.40;46.40;;;;;;1501793;77;1185;-56
2022/07/05 02:38:47;;;;;;;;;;;27.40;46.30;;;;;;1504451;77;703;-57
2022/07/05 02:40:49;;;;;;;;;;;27.40;46.30;;;;;;1496130;77;728;-56
2022/07/05 02:42:51;;;;;;;;;;;27.40;46.30;;;;;;1500278;77;706;-55
2022/07/05 02:44:53;;;;;;;;;;;27.40;46.30;;;;;;1496744;77;1599;-54
2022/07/05 02:46:55;;;;;;;;;;;27.40;46.30;;;;;;1502322;77;1106;-57
2022/07/05 02:48:57;;;;;;;;;;;27.40;46.30;;;;;;1503813;77;689;-56
2022/07/05 02:50:58;;;;;;;;;;;27.40;46.30;;;;;;1500198;77;1953;-56
2022/07/05 02:53:00;;;;;;;;;;;27.40;46.30;;;;;;1497735;77;780;-57
2022/07/05 02:55:06;;;;;;;;;;;27.40;46.30;;;;;;1505205;77;732;-56
2022/07/05 02:57:07;;;;;;;;;;;27.40;46.30;;;;;;1506987;77;1147;-56
2022/07/05 02:59:09;;;;;;;;;;;27.40;46.40;;;;;;1502104;77;1596;-54
2022/07/05 03:01:11;;;;;;;;;;;27.40;46.40;;;;;;1503629;77;688;-56
2022/07/05 03:03:13;;;;;;;;;;;27.40;46.40;;;;;;1505293;77;751;-56
2022/07/05 03:05:15;;;;;;;;;;;27.40;46.40;;;;;;1495884;77;678;-54
2022/07/05 03:07:17;;;;;;;;;;;27.40;46.40;;;;;;1501491;77;1143;-55
2022/07/05 03:09:19;;;;;;;;;;;27.40;46.40;;;;;;1501810;77;712;-55
2022/07/05 03:11:21;;;;;;;;;;;27.40;46.40;;;;;;1496605;77;1942;-56
2022/07/05 03:13:23;;;;;;;;;;;27.40;46.40;;;;;;1503624;77;1598;-55
2022/07/05 03:15:25;;;;;;;;;;;27.40;46.40;;;;;;1501538;77;684;-54
2022/07/05 03:17:26;;;;;;;;;;;27.40;46.50;;;;;;1502276;77;1142;-56
2022/07/05 03:19:28;;;;;;;;;;;27.40;46.50;;;;;;1496287;77;720;-56
2022/07/05 03:21:30;;;;;;;;;;;27.40;46.40;;;;;;1503904;77;817;-57
2022/07/05 03:23:32;;;;;;;;;;;27.40;46.50;;;;;;1502759;77;654;-56
2022/07/05 03:25:34;;;;;;;;;;;27.40;46.40;;;;;;1506239;77;619;-56
2022/07/05 03:27:36;;;;;;;;;;;27.40;46.40;;;;;;1504768;77;1552;-55
2022/07/05 03:29:38;;;;;;;;;;;27.40;46.40;;;;;;1503253;77;678;-55
2022/07/05 03:31:40;;;;;;;;;;;27.40;46.40;;;;;;1504484;77;1958;-57
2022/07/05 03:33:42;;;;;;;;;;;27.40;46.50;;;;;;1497537;77;793;-56
2022/07/05 03:35:44;;;;;;;;;;;27.40;46.40;;;;;;1497405;77;906;-54
2022/07/05 03:37:46;;;;;;;;;;;27.50;46.40;;;;;;1502298;77;1101;-57
2022/07/05 03:39:48;;;;;;;;;;;27.40;46.40;;;;;;1510610;77;645;-56
2022/07/05 03:41:50;;;;;;;;;;;27.40;46.40;;;;;;1501719;77;1543;-56
2022/07/05 03:43:52;;;;;;;;;;;27.50;46.40;;;;;;1503599;77;740;-57
2022/07/05 03:45:54;;;;;;;;;;;27.50;46.40;;;;;;1505585;77;671;-56
2022/07/05 03:47:59;;;;;;;;;;;27.50;46.40;;;;;;1479921;78;1133;-56
2022/07/05 03:50:01;;;;;;;;;;;27.50;46.40;;;;;;1498034;77;714;-57
2022/07/05 03:52:03;;;;;;;;;;;27.50;46.40;;;;;;1508823;77;1932;-57
2022/07/05 03:54:05;;;;;;;;;;;27.40;46.40;;;;;;1505739;77;774;-56
2022/07/05 03:56:07;;;;;;;;;;;27.40;46.50;;;;;;1511773;77;1372;-57
2022/07/05 03:58:08;;;;;;;;;;;27.50;46.50;;;;;;1496202;77;1140;-56
2022/07/05 04:00:11;;;;;;;;;;;27.40;46.50;;;;;;1499609;77;623;-54
2022/07/05 04:02:12;;;;;;;;;;;27.40;46.50;;;;;;1501014;77;717;-55
2022/07/05 04:04:14;;;;;;;;;;;27.50;46.50;;;;;;1499197;77;683;-55
2022/07/05 04:06:16;;;;;;;;;;;27.40;46.50;;;;;;1497532;77;1151;-57
2022/07/05 04:08:18;;;;;;;;;;;27.40;46.50;;;;;;1504298;77;696;-55
2022/07/05 04:10:20;;;;;;;;;;;27.40;46.50;;;;;;1506060;77;1629;-56
2022/07/05 04:12:22;;;;;;;;;;;27.50;46.50;;;;;;1505492;77;1938;-56
2022/07/05 04:14:24;;;;;;;;;;;27.50;46.50;;;;;;1507773;77;758;-55
2022/07/05 04:16:26;;;;;;;;;;;27.40;46.50;;;;;;1507096;77;1135;-54
2022/07/05 04:18:28;;;;;;;;;;;27.50;46.50;;;;;;1503737;77;788;-53
2022/07/05 04:20:30;;;;;;;;;;;27.50;46.50;;;;;;1506331;77;769;-55
2022/07/05 04:22:31;;;;;;;;;;;27.50;46.50;;;;;;1496220;77;708;-55
2022/07/05 04:25:16;;;;;;;;;;;27.40;46.60;;;;;;1502434;77;1274;-56
2022/07/05 04:26:37;;;;;;;;;;;27.50;46.60;;;;;;1498113;77;1493;-55
2022/07/05 04:28:39;;;;;;;;;;;27.50;46.60;;;;;;1499225;77;720;-56
2022/07/05 04:30:41;;;;;;;;;;;27.50;46.50;;;;;;1502443;77;1941;-54
2022/07/05 04:32:43;;;;;;;;;;;27.50;46.50;;;;;;1492975;77;779;-55
2022/07/05 04:34:45;;;;;;;;;;;27.50;46.60;;;;;;1499344;77;790;-57
2022/07/05 04:36:46;;;;;;;;;;;27.50;46.60;;;;;;1491038;77;1550;-57
2022/07/05 04:38:48;;;;;;;;;;;27.50;46.60;;;;;;1488568;77;729;-57
2022/07/05 04:40:50;;;;;;;;;;;27.50;46.50;;;;;;1496121;77;722;-57
2022/07/05 04:42:52;;;;;;;;;;;27.50;46.50;;;;;;1496487;77;753;-57
2022/07/05 04:44:54;;;;;;;;;;;27.50;46.50;;;;;;1496418;77;866;-54
2022/07/05 04:46:56;;;;;;;;;;;27.50;46.50;;;;;;1497822;77;1131;-55
2022/07/05 04:48:58;;;;;;;;;;;27.50;46.50;;;;;;1493141;77;709;-55
2022/07/05 04:50:59;;;;;;;;;;;27.50;46.50;;;;;;1496679;77;1942;-58
2022/07/05 04:53:01;;;;;;;;;;;27.50;46.50;;;;;;1500597;77;718;-56
2022/07/05 04:55:03;;;;;;;;;;;27.50;46.50;;;;;;1496796;77;692;-56
2022/07/05 04:57:05;;;;;;;;;;;27.50;46.50;;;;;;1512580;77;1102;-59
2022/07/05 04:59:07;;;;;;;;;;;27.40;46.60;;;;;;1504150;77;680;-56
2022/07/05 05:01:09;;;;;;;;;;;27.40;46.60;;;;;;1505436;77;711;-55
2022/07/05 05:03:11;;;;;;;;;;;27.40;46.60;;;;;;1502962;77;815;-59
2022/07/05 05:05:13;;;;;;;;;;;27.40;46.60;;;;;;1497978;77;1580;-59
2022/07/05 05:07:14;;;;;;;;;;;27.40;46.70;;;;;;1502090;77;1163;-56
2022/07/05 05:09:16;;;;;;;;;;;27.40;46.80;;;;;;1501527;77;722;-56
2022/07/05 05:11:18;;;;;;;;;;;27.40;46.80;;;;;;1505375;77;1941;-59
2022/07/05 05:13:20;;;;;;;;;;;27.40;46.80;;;;;;1495550;77;684;-58
2022/07/05 05:15:22;;;;;;;;;;;27.30;46.80;;;;;;1506288;77;696;-56
2022/07/05 05:17:24;;;;;;;;;;;27.30;46.90;;;;;;1502830;77;1107;-59
2022/07/05 05:19:26;;;;;;;;;;;27.30;46.90;;;;;;1504106;77;1579;-59
2022/07/05 05:21:28;;;;;;;;;;;27.40;46.80;;;;;;1497894;77;662;-58
2022/07/05 05:23:29;;;;;;;;;;;27.40;46.80;;;;;;1498238;77;720;-56
2022/07/05 05:25:31;;;;;;;;;;;27.30;46.80;;;;;;1500618;77;786;-56
2022/07/05 05:27:33;;;;;;;;;;;27.40;46.80;;;;;;1503868;77;1175;-57
2022/07/05 05:29:35;;;;;;;;;;;27.40;46.90;;;;;;1503925;77;736;-55
2022/07/05 05:31:37;;;;;;;;;;;27.40;46.90;;;;;;1493752;77;1931;-58
2022/07/05 05:33:39;;;;;;;;;;;27.30;47.00;;;;;;1505727;77;1574;-57
2022/07/05 05:35:41;;;;;;;;;;;27.40;46.80;;;;;;1494731;77;628;-56
2022/07/05 05:37:49;;;;;;;;;;;27.40;46.80;;;;;;1501674;77;1184;-58
2022/07/05 05:39:51;;;;;;;;;;;27.30;46.80;;;;;;1501822;77;653;-60
2022/07/05 05:41:53;;;;;;;;;;;27.40;46.90;;;;;;1502287;77;978;-59
2022/07/05 05:43:55;;;;;;;;;;;27.40;46.90;;;;;;1498004;77;881;-56
2022/07/05 05:45:57;;;;;;;;;;;27.30;47.00;;;;;;1501143;77;656;-57
2022/07/05 05:47:59;;;;;;;;;;;27.40;46.90;;;;;;1499407;77;1447;-56
2022/07/05 05:50:01;;;;;;;;;;;27.30;46.80;;;;;;1494578;77;674;-56
2022/07/05 05:52:03;;;;;;;;;;;27.30;46.90;;;;;;1505656;77;1955;-57
2022/07/05 05:54:05;;;;;;;;;;;27.30;46.90;;;;;;1505230;77;800;-59
2022/07/05 05:56:07;;;;;;;;;;;27.30;46.90;;;;;;1500084;77;1105;-57
2022/07/05 05:58:15;;;;;;;;;;;27.30;47.00;;;;;;1502150;77;1108;-57
2022/07/05 06:00:17;;;;;;;;;;;27.20;47.00;;;;;;1499425;77;670;-56
2022/07/05 06:02:19;;;;;;;;;;;27.20;47.10;;;;;;1500704;77;1575;-58
2022/07/05 06:04:21;;;;;;;;;;;27.20;47.10;;;;;;1499854;77;709;-58
2022/07/05 06:06:23;;;;;;;;;;;27.20;47.00;;;;;;1499676;77;1122;-58
2022/07/05 06:08:25;;;;;;;;;;;27.20;47.10;;;;;;1501811;77;690;-58
2022/07/05 06:10:27;;;;;;;;;;;27.10;47.10;;;;;;1503123;77;772;-55
2022/07/05 06:12:29;;;;;;;;;;;27.20;47.10;;;;;;1501448;77;1935;-58
2022/07/05 06:14:31;;;;;;;;;;;27.20;47.10;;;;;;1501889;77;692;-58
2022/07/05 06:16:33;;;;;;;;;;;27.20;47.20;;;;;;1500035;77;1571;-57
2022/07/05 06:18:35;;;;;;;;;;;27.10;47.20;;;;;;1497174;77;691;-56
2022/07/05 06:20:37;;;;;;;;;;;27.20;47.20;;;;;;1496747;77;739;-56
2022/07/05 06:22:39;;;;;;;;;;;27.10;47.20;;;;;;1495017;77;739;-59
2022/07/05 06:24:41;;;;;;;;;;;27.10;47.20;;;;;;1495825;77;871;-55
2022/07/05 06:26:43;;;;;;;;;;;27.10;47.30;;;;;;1502687;77;1141;-58
2022/07/05 06:28:45;;;;;;;;;;;27.10;47.30;;;;;;1499603;77;663;-56
2022/07/05 06:30:47;;;;;;;;;;;27.10;47.30;;;;;;1498241;77;1357;-59
2022/07/05 06:32:48;;;;;;;;;;;27.10;47.30;;;;;;1491811;77;1931;-57
2022/07/05 06:34:50;;;;;;;;;;;27.10;47.30;;;;;;1494035;77;807;-57
2022/07/05 06:36:52;;;;;;;;;;;27.10;47.30;;;;;;1491152;77;1202;-55
2022/07/05 06:38:54;;;;;;;;;;;27.10;47.20;;;;;;1490430;77;675;-55
2022/07/05 06:40:57;;;;;;;;;;;27.10;47.20;;;;;;1496637;77;775;-59
2022/07/05 06:42:59;;;;;;;;;;;27.10;47.20;;;;;;1492531;77;774;-59
2022/07/05 06:45:01;;;;;;;;;;;27.10;47.10;;;;;;1497807;77;1601;-57
2022/07/05 06:47:03;;;;;;;;;;;27.10;47.20;;;;;;1489388;77;1154;-59
2022/07/05 06:49:05;;;;;;;;;;;27.10;47.10;;;;;;1497661;77;783;-60
2022/07/05 06:51:07;;;;;;;;;;;27.10;47.20;;;;;;1501209;77;782;-59
2022/07/05 06:53:09;;;;;;;;;;;27.10;47.10;;;;;;1501781;77;1931;-59
2022/07/05 06:55:11;;;;;;;;;;;27.10;47.20;;;;;;1496506;77;771;-59
2022/07/05 06:57:12;;;;;;;;;;;27.10;47.20;;;;;;1498682;77;1129;-57
2022/07/05 06:59:14;;;;;;;;;;;27.10;47.20;;;;;;1496366;77;1561;-55
2022/07/05 07:01:16;;;;;;;;;;;27.10;47.20;;;;;;1489598;77;694;-58
2022/07/05 07:03:18;;;;;;;;;;;27.10;47.20;;;;;;1500330;77;769;-57
2022/07/05 07:05:20;;;;;;;;;;;27.10;47.20;;;;;;1489427;77;791;-60
2022/07/05 07:09:42;;;;;;;;;;;27.00;47.20;;;;;;1500075;77;1592;-57
2022/07/05 07:11:44;;;;;;;;;;;27.00;47.30;;;;;;1500155;77;1933;-59
2022/07/05 07:13:46;;;;;;;;;;;27.00;47.20;;;;;;1493758;77;727;-59
2022/07/05 07:15:48;;;;;;;;;;;27.00;47.20;;;;;;1497176;77;703;-58
2022/07/05 07:17:50;;;;;;;;;;;27.00;47.20;;;;;;1500721;77;1148;-57
2022/07/05 07:19:52;;;;;;;;;;;27.00;47.20;;;;;;1499141;77;709;-57
2022/07/05 07:21:55;;;;;;;;;;;27.00;47.20;;;;;;1492471;77;724;-55
2022/07/05 07:23:56;;;;;;;;;;;27.00;47.20;;;;;;1499715;77;712;-58
2022/07/05 07:25:58;;;;;;;;;;;27.00;47.30;;;;;;1499243;77;1466;-59
2022/07/05 07:28:00;;;;;;;;;;;27.00;47.30;;;;;;1492727;77;1127;-56
2022/07/05 07:30:03;;;;;;;;;;;27.00;47.30;;;;;;1497680;77;699;-55
2022/07/05 07:32:05;;;;;;;;;;;27.00;47.30;;;;;;1522547;72;228870;-72
2022/07/05 07:34:07;;;;;;;;;;;27.10;47.30;;;;;;1602208;73;696;-70
2022/07/05 07:36:09;;;;;;;;;;;27.20;47.20;;;;;;1608584;73;749;-69
2022/07/05 07:38:11;;;;;;;;;;;27.20;46.90;;;;;;1611810;73;614;-66
2022/07/05 07:40:12;;;;;;;;;;;27.30;46.80;;;;;;1606808;73;1457;-66
2022/07/05 07:42:14;;;;;;;;;;;27.20;46.60;;;;;;1594298;73;1182;-64
2022/07/05 07:44:16;;;;;;;;;;;27.30;46.50;;;;;;1597372;73;624;-66
2022/07/05 07:46:18;;;;;;;;;;;27.30;46.30;;;;;;1595011;73;672;-66
2022/07/05 07:48:20;;;;;;;;;;;27.40;46.10;;;;;;1593990;73;649;-67
2022/07/05 07:50:22;;;;;;;;;;;27.40;46.00;;;;;;1594601;73;699;-68
2022/07/05 07:52:24;;;;;;;;;;;27.40;45.90;;;;;;1595711;73;1938;-67
2022/07/05 07:54:26;;;;;;;;;;;27.40;45.50;;;;;;1587620;73;1469;-65
2022/07/05 07:56:28;;;;;;;;;;;27.40;45.40;;;;;;1586419;73;721;-66
2022/07/05 07:58:29;;;;;;;;;;;27.40;45.10;;;;;;1593727;73;626;-67
2022/07/05 08:00:31;;;;;;;;;;;27.40;45.10;;;;;;1593464;73;646;-67
2022/07/05 08:02:33;;;;;;;;;;;27.50;45.00;;;;;;1600565;73;1137;-67
2022/07/05 08:04:35;;;;;;;;;;;27.50;44.80;;;;;;1586113;74;756;-66
2022/07/05 08:06:37;;;;;;;;;;;27.50;44.60;;;;;;1581861;74;701;-67
2022/07/05 08:08:39;;;;;;;;;;;27.50;44.40;;;;;;1620001;72;1488;-67
2022/07/05 08:10:41;;;;;;;;;;;27.50;44.40;;;;;;1616447;72;640;-67
2022/07/05 08:12:43;;;;;;;;;;;27.50;44.30;;;;;;1623191;72;1925;-66
2022/07/05 08:14:46;;;;;;;;;;;27.50;44.20;;;;;;1611485;72;660;-67
2022/07/05 08:16:48;;;;;;;;;;;27.50;44.10;;;;;;1610592;72;680;-66
2022/07/05 08:23:30;;;;;;;;;;;27.40;43.30;;;;;;1607852;72;1630;-68
2022/07/05 08:25:32;;;;;;;;;;;27.50;43.10;;;;;;1608860;72;637;-67
2022/07/05 08:27:34;;;;;;;;;;;27.50;43.10;;;;;;1615521;72;690;-67
2022/07/05 08:29:36;;;;;;;;;;;27.50;43.00;;;;;;1609536;72;779;-65
2022/07/05 08:31:39;;;;;;;;;;;27.50;42.80;;;;;;1628224;72;1108;-67
2022/07/05 08:33:41;;;;;;;;;;;27.60;42.70;;;;;;1614673;72;1943;-68
2022/07/05 08:35:43;;;;;;;;;;;27.50;42.70;;;;;;1607344;72;728;-66
2022/07/05 08:37:45;;;;;;;;;;;27.40;42.50;;;;;;1619480;72;1396;-69
2022/07/05 08:39:47;;;;;;;;;;;27.40;42.60;;;;;;1613511;72;687;-68
2022/07/05 08:41:52;;;;;;;;;;;27.40;42.30;;;;;;1612713;72;1132;-68
2022/07/05 08:43:54;;;;;;;;;;;27.40;42.30;;;;;;1606029;72;843;-68
2022/07/05 08:45:56;;;;;;;;;;;27.30;42.40;;;;;;1614432;72;766;-68
2022/07/05 08:47:57;;;;;;;;;;;27.40;42.20;;;;;;1606303;72;621;-67
2022/07/05 08:49:59;;;;;;;;;;;27.40;42.20;;;;;;1608814;72;1502;-68
2022/07/05 08:52:03;;;;;;;;;;;27.30;42.10;;;;;;1608624;72;1112;-68
2022/07/05 08:54:06;;;;;;;;;;;27.30;42.10;;;;;;1607349;72;1933;-69
2022/07/05 08:56:08;;;;;;;;;;;27.30;42.10;;;;;;1613160;72;712;-69
2022/07/05 08:58:10;;;;;;;;;;;27.40;42.00;;;;;;1614520;72;741;-69
2022/07/05 09:00:12;;;;;;;;;;;27.30;41.90;;;;;;1621945;72;693;-68
2022/07/05 09:02:16;;;;;;;;;;;27.30;41.80;;;;;;1609327;72;1131;-68
2022/07/05 09:04:18;;;;;;;;;;;27.30;40.80;;;;;;1612888;72;1425;-68
2022/07/05 09:06:21;;;;;;;;;;;27.30;41.70;;;;;;1618550;72;667;-67
2022/07/05 09:08:23;;;;;;;;;;;27.30;41.60;;;;;;1611937;72;720;-68
2022/07/05 09:10:29;;;;;;;;;;;27.30;41.60;;;;;;1613672;72;686;-68
2022/07/05 09:12:31;;;;;;;;;;;27.30;41.40;;;;;;1620655;72;1930;-68
2022/07/05 09:14:33;;;;;;;;;;;27.30;41.30;;;;;;1614869;72;652;-67
2022/07/05 09:16:35;;;;;;;;;;;27.30;41.30;;;;;;1609373;72;676;-65
2022/07/05 09:18:40;;;;;;;;;;;27.30;41.10;;;;;;1606197;72;1488;-68
2022/07/05 09:20:44;;;;;;;;;;;27.30;41.20;;;;;;1621846;72;648;-64
2022/07/05 09:22:51;;;;;;;;;;;27.30;41.30;;;;;;1622850;72;1534;-67
2022/07/05 09:24:53;;;;;;;;;;;27.30;40.80;;;;;;1609361;72;1696;-67
2022/07/05 09:26:55;;;;;;;;;;;27.30;40.60;;;;;;1617225;72;680;-66
2022/07/05 09:28:57;;;;;;;;;;;27.20;40.50;;;;;;1580604;74;1269;-66
2022/07/05 09:30:59;;;;;;;;;;;27.20;40.60;;;;;;1621948;72;926;-66
2022/07/05 09:33:05;;;;;;;;;;;27.20;40.60;;;;;;1620820;72;1952;-67
2022/07/05 09:35:19;;;;;;;;;;;27.30;40.60;;;;;;1622314;72;700;-66
2022/07/05 09:37:21;;;;;;;;;;;27.20;40.50;;;;;;1615906;72;843;-67
2022/07/05 09:39:31;;;;;;;;;;;27.20;40.30;;;;;;1615727;72;635;-71
2022/07/05 09:41:33;;;;;;;;;;;27.20;40.20;;;;;;1612776;72;1218;-67
2022/07/05 09:43:35;;;;;;;;;;;27.10;39.90;;;;;;1620680;72;649;-68
2022/07/05 09:45:36;;;;;;;;;;;27.20;39.50;;;;;;1605379;72;620;-67
2022/07/05 09:47:38;;;;;;;;;;;27.10;39.50;;;;;;1609591;72;1499;-64
2022/07/05 09:49:44;;;;;;;;;;;27.10;39.20;;;;;;1611097;72;717;-66
2022/07/05 09:51:49;;;;;;;;;;;27.10;39.00;;;;;;1609334;72;1128;-66
2022/07/05 09:53:52;;;;;;;;;;;27.10;39.20;;;;;;1614170;72;1912;-64
2022/07/05 09:56:01;;;;;;;;;;;27.10;39.00;;;;;;1624373;72;662;-67
2022/07/05 09:58:03;;;;;;;;;;;27.00;38.70;;;;;;1616049;72;677;-68
2022/07/05 10:00:06;;;;;;;;;;;27.00;38.80;;;;;;1610621;72;667;-68
2022/07/05 10:02:08;;;;;;;;;;;27.00;38.90;;;;;;1611467;72;1594;-68
2022/07/05 10:04:10;;;;;;;;;;;27.00;39.00;;;;;;1606136;72;717;-68
2022/07/05 10:06:12;;;;;;;;;;;27.10;38.90;;;;;;1621388;72;674;-67
2022/07/05 10:08:14;;;;;;;;;;;27.10;38.90;;;;;;1602658;72;699;-69
2022/07/05 10:10:17;;;;;;;;;;;27.00;38.80;;;;;;1599947;72;667;-67
2022/07/05 10:12:19;;;;;;;;;;;27.00;38.60;;;;;;1610090;72;1143;-67
2022/07/05 10:14:21;;;;;;;;;;;26.90;38.00;;;;;;1605473;72;1929;-66
2022/07/05 10:16:23;;;;;;;;;;;26.90;38.10;;;;;;1614921;72;631;-68
2022/07/05 10:18:31;;;;;;;;;;;27.00;38.90;;;;;;1610747;72;693;-68
2022/07/05 10:20:42;;;;;;;;;;;26.90;37.90;;;;;;1609276;72;1715;-68
2022/07/05 10:22:44;;;;;;;;;;;26.90;37.70;;;;;;1600136;72;1147;-69
2022/07/05 10:24:46;;;;;;;;;;;26.90;37.60;;;;;;1605367;72;688;-68
2022/07/05 10:26:48;;;;;;;;;;;26.80;37.60;;;;;;1611687;72;633;-69
2022/07/05 10:28:51;;;;;;;;;;;26.90;37.70;;;;;;1599040;72;1378;-69
2022/07/05 10:30:54;;;;;;;;;;;26.80;37.80;;;;;;1610276;72;640;-68
2022/07/05 10:32:56;;;;;;;;;;;26.90;37.70;;;;;;1609940;72;1937;-67
2022/07/05 10:34:58;;;;;;;;;;;26.80;37.80;;;;;;1620998;71;778;-67
2022/07/05 10:37:00;;;;;;;;;;;26.80;37.80;;;;;;1625861;72;735;-68
2022/07/05 10:39:02;;;;;;;;;;;26.80;37.90;;;;;;1631485;71;695;-69
2022/07/05 10:41:04;;;;;;;;;;;26.80;38.00;;;;;;1624496;72;609;-67
2022/07/05 10:43:07;;;;;;;;;;;26.80;38.00;;;;;;1626967;72;1515;-68
2022/07/05 10:45:27;;;;;;;;;;;26.90;37.80;;;;;;1628853;71;669;-69
2022/07/05 10:47:29;;;;;;;;;;;26.80;37.60;;;;;;1626881;72;706;-68
2022/07/05 10:49:31;;;;;;;;;;;26.80;37.20;;;;;;1624737;71;735;-67
2022/07/05 10:51:35;;;;;;;;;;;26.80;37.10;;;;;;1633087;71;1139;-69
2022/07/05 10:53:38;;;;;;;;;;;26.70;37.20;;;;;;1599479;73;1942;-76
2022/07/05 10:55:50;;;;;;;;;;;26.70;37.20;;;;;;1624784;72;724;-69
2022/07/05 10:58:10;;;;;;;;;;;26.70;37.30;;;;;;1615799;71;1571;-69
2022/07/05 11:00:12;;;;;;;;;;;26.70;37.30;;;;;;1631953;72;738;-69
2022/07/05 11:02:14;;;;;;;;;;;26.60;37.30;;;;;;1629130;71;1088;-69
2022/07/05 11:04:18;;;;;;;;;;;26.60;37.30;;;;;;1626509;72;647;-68
2022/07/05 11:06:21;;;;;;;;;;;26.60;37.30;;;;;;1626444;71;694;-69
2022/07/05 11:08:23;;;;;;;;;;;26.70;37.30;;;;;;1622346;71;1699;-71
2022/07/05 11:10:25;;;;;;;;;;;26.70;37.30;;;;;;1635132;71;698;-70
2022/07/05 11:12:29;;;;;;;;;;;26.70;37.10;;;;;;1625962;71;1615;-67
2022/07/05 11:14:31;;;;;;;;;;;26.70;37.10;;;;;;1624000;72;1921;-69
2022/07/05 11:16:33;;;;;;;;;;;26.60;37.10;;;;;;1624922;72;683;-69
2022/07/05 11:18:35;;;;;;;;;;;26.60;37.10;;;;;;1625987;71;672;-71
2022/07/05 11:20:37;;;;;;;;;;;26.60;37.10;;;;;;1624263;71;660;-73
2022/07/05 11:22:41;;;;;;;;;;;26.60;37.10;;;;;;1614242;71;1092;-73
2022/07/05 11:24:43;;;;;;;;;;;26.50;37.20;;;;;;1620458;71;1447;-73
2022/07/05 11:26:45;;;;;;;;;;;26.70;37.20;;;;;;1628298;71;725;-74
2022/07/05 11:28:48;;;;;;;;;;;26.60;37.20;;;;;;1626492;72;590;-71
2022/07/05 11:30:58;;;;;;;;;;;26.60;37.10;;;;;;1626673;71;614;-74
2022/07/05 11:33:00;;;;;;;;;;;26.60;37.10;;;;;;1622630;71;1097;-66
2022/07/05 11:35:15;;;;;;;;;;;26.50;37.00;;;;;;1618804;72;1920;-66
2022/07/05 11:37:24;;;;;;;;;;;26.60;37.10;;;;;;1619210;71;700;-68
2022/07/05 11:39:26;;;;;;;;;;;26.50;37.30;;;;;;1626895;71;1508;-68
2022/07/05 11:41:30;;;;;;;;;;;26.50;37.30;;;;;;1622367;72;1186;-69
2022/07/05 11:43:32;;;;;;;;;;;26.50;37.30;;;;;;1595827;73;644;-69
2022/07/05 11:45:34;;;;;;;;;;;26.50;37.50;;;;;;1615175;71;672;-69
2022/07/05 11:47:36;;;;;;;;;;;26.50;37.50;;;;;;1626245;71;656;-69
2022/07/05 11:49:38;;;;;;;;;;;26.50;37.60;;;;;;1625030;71;745;-69
2022/07/05 11:51:40;;;;;;;;;;;26.60;37.80;;;;;;1625299;71;1159;-68
2022/07/05 11:53:45;;;;;;;;;;;26.60;37.80;;;;;;1623225;71;1923;-66
2022/07/05 11:55:47;;;;;;;;;;;26.60;37.90;;;;;;1621175;71;541;-69
2022/07/05 11:57:50;;;;;;;;;;;26.60;38.00;;;;;;1601733;73;1161;-68
2022/07/05 11:59:52;;;;;;;;;;;26.60;38.00;;;;;;1625228;72;855;-68
2022/07/05 12:01:53;;;;;;;;;;;26.60;38.10;;;;;;1631771;71;1129;-70
2022/07/05 12:03:56;;;;;;;;;;;26.60;38.20;;;;;;1625418;71;655;-69
2022/07/05 12:05:58;;;;;;;;;;;26.60;38.40;;;;;;1622857;71;695;-68
2022/07/05 12:08:00;;;;;;;;;;;26.60;38.40;;;;;;1625257;72;1501;-69
2022/07/05 12:14:50;;;;;;;;;;;26.50;38.70;;;;;;1623473;71;1873;-68
2022/07/05 12:17:03;;;;;;;;;;;26.60;38.90;;;;;;1623789;71;706;-71
2022/07/05 12:19:06;;;;;;;;;;;26.60;38.90;;;;;;1601172;71;1368;-69
2022/07/05 12:21:09;;;;;;;;;;;26.60;38.90;;;;;;1626862;71;1468;-70
2022/07/05 12:23:11;;;;;;;;;;;26.70;39.00;;;;;;1625440;71;1774;-69